sensor_id;sensor_type;location;lat;lon;timestamp;P1;durP1;ratioP1;P2;durP2;ratioP2
20535;SDS011;10426;49.420;8.390;2023-04-01T00:02:21;2.33;;;1.10;;
20535;SDS011;10426;49.420;8.390;2023-04-01T00:04:48;2.63;;;1.20;;
20535;SDS011;10426;49.420;8.390;2023-04-01T00:07:15;2.22;;;1.25;;
20535;SDS011;10426;49.420;8.390;2023-04-01T00:09:42;2.58;;;1.10;;
20535;SDS011;10426;49.420;8.390;2023-04-01T00:12:08;2.65;;;1.60;;
20535;SDS011;10426;49.420;8.390;2023-04-01T00:14:35;2.60;;;1.08;;
20535;SDS011;10426;49.420;8.390;2023-04-01T00:17:02;2.33;;;1.10;;
20535;SDS011;10426;49.420;8.390;2023-04-01T00:19:30;2.80;;;1.35;;
20535;SDS011;10426;49.420;8.390;2023-04-01T00:21:57;3.50;;;1.70;;
20535;SDS011;10426;49.420;8.390;2023-04-01T00:24:24;2.88;;;1.20;;
20535;SDS011;10426;49.420;8.390;2023-04-01T00:26:51;3.20;;;1.40;;
20535;SDS011;10426;49.420;8.390;2023-04-01T00:29:18;3.75;;;1.70;;
20535;SDS011;10426;49.420;8.390;2023-04-01T00:31:45;2.63;;;1.27;;
20535;SDS011;10426;49.420;8.390;2023-04-01T00:34:11;4.13;;;1.17;;
20535;SDS011;10426;49.420;8.390;2023-04-01T00:36:39;3.08;;;1.25;;
20535;SDS011;10426;49.420;8.390;2023-04-01T00:39:06;2.95;;;1.30;;
20535;SDS011;10426;49.420;8.390;2023-04-01T00:41:33;3.67;;;1.23;;
20535;SDS011;10426;49.420;8.390;2023-04-01T00:44:14;3.03;;;1.20;;
20535;SDS011;10426;49.420;8.390;2023-04-01T00:46:41;3.90;;;1.30;;
20535;SDS011;10426;49.420;8.390;2023-04-01T00:49:08;2.90;;;1.25;;
20535;SDS011;10426;49.420;8.390;2023-04-01T00:51:35;3.15;;;1.25;;
20535;SDS011;10426;49.420;8.390;2023-04-01T00:54:05;2.55;;;1.30;;
20535;SDS011;10426;49.420;8.390;2023-04-01T00:56:33;3.00;;;1.10;;
20535;SDS011;10426;49.420;8.390;2023-04-01T00:59:02;2.47;;;1.27;;
20535;SDS011;10426;49.420;8.390;2023-04-01T01:01:31;3.40;;;1.27;;
20535;SDS011;10426;49.420;8.390;2023-04-01T01:03:58;4.10;;;1.13;;
20535;SDS011;10426;49.420;8.390;2023-04-01T01:06:27;2.65;;;1.23;;
20535;SDS011;10426;49.420;8.390;2023-04-01T01:11:44;2.92;;;1.40;;
20535;SDS011;10426;49.420;8.390;2023-04-01T01:14:19;3.40;;;1.23;;
20535;SDS011;10426;49.420;8.390;2023-04-01T01:16:50;3.10;;;1.23;;
20535;SDS011;10426;49.420;8.390;2023-04-01T01:19:24;2.40;;;1.30;;
20535;SDS011;10426;49.420;8.390;2023-04-01T01:22:00;2.70;;;1.33;;
20535;SDS011;10426;49.420;8.390;2023-04-01T01:24:34;1.73;;;1.20;;
20535;SDS011;10426;49.420;8.390;2023-04-01T01:27:08;3.25;;;1.20;;
20535;SDS011;10426;49.420;8.390;2023-04-01T01:32:42;2.13;;;1.25;;
20535;SDS011;10426;49.420;8.390;2023-04-01T01:35:16;4.57;;;1.45;;
20535;SDS011;10426;49.420;8.390;2023-04-01T01:37:45;3.78;;;1.20;;
20535;SDS011;10426;49.420;8.390;2023-04-01T01:40:13;4.40;;;1.58;;
20535;SDS011;10426;49.420;8.390;2023-04-01T01:42:41;2.95;;;1.50;;
20535;SDS011;10426;49.420;8.390;2023-04-01T01:45:10;3.70;;;1.60;;
20535;SDS011;10426;49.420;8.390;2023-04-01T01:47:37;2.50;;;1.15;;
20535;SDS011;10426;49.420;8.390;2023-04-01T01:50:05;5.05;;;1.60;;
20535;SDS011;10426;49.420;8.390;2023-04-01T01:52:33;4.13;;;1.43;;
20535;SDS011;10426;49.420;8.390;2023-04-01T01:55:00;3.67;;;1.37;;
20535;SDS011;10426;49.420;8.390;2023-04-01T01:57:28;4.57;;;1.50;;
20535;SDS011;10426;49.420;8.390;2023-04-01T01:59:55;3.70;;;1.30;;
20535;SDS011;10426;49.420;8.390;2023-04-01T02:02:23;2.40;;;1.20;;
20535;SDS011;10426;49.420;8.390;2023-04-01T02:04:51;3.72;;;1.50;;
20535;SDS011;10426;49.420;8.390;2023-04-01T02:07:19;2.38;;;1.30;;
20535;SDS011;10426;49.420;8.390;2023-04-01T02:09:49;3.92;;;1.58;;
20535;SDS011;10426;49.420;8.390;2023-04-01T02:12:17;3.92;;;1.30;;
20535;SDS011;10426;49.420;8.390;2023-04-01T02:14:45;3.03;;;1.33;;
20535;SDS011;10426;49.420;8.390;2023-04-01T02:17:14;2.75;;;1.45;;
20535;SDS011;10426;49.420;8.390;2023-04-01T02:19:43;2.90;;;1.30;;
20535;SDS011;10426;49.420;8.390;2023-04-01T02:22:13;3.53;;;1.60;;
20535;SDS011;10426;49.420;8.390;2023-04-01T02:24:40;1.58;;;1.20;;
20535;SDS011;10426;49.420;8.390;2023-04-01T02:27:09;2.85;;;1.25;;
20535;SDS011;10426;49.420;8.390;2023-04-01T02:29:36;2.33;;;1.20;;
20535;SDS011;10426;49.420;8.390;2023-04-01T02:32:03;2.23;;;1.20;;
20535;SDS011;10426;49.420;8.390;2023-04-01T02:34:30;3.40;;;1.20;;
20535;SDS011;10426;49.420;8.390;2023-04-01T02:36:57;2.58;;;1.20;;
20535;SDS011;10426;49.420;8.390;2023-04-01T02:39:24;2.70;;;1.10;;
20535;SDS011;10426;49.420;8.390;2023-04-01T02:41:50;2.40;;;1.10;;
20535;SDS011;10426;49.420;8.390;2023-04-01T02:44:18;2.75;;;1.05;;
20535;SDS011;10426;49.420;8.390;2023-04-01T02:46:45;2.05;;;1.13;;
20535;SDS011;10426;49.420;8.390;2023-04-01T02:49:12;2.78;;;1.25;;
20535;SDS011;10426;49.420;8.390;2023-04-01T02:51:38;3.00;;;1.17;;
20535;SDS011;10426;49.420;8.390;2023-04-01T02:54:05;2.65;;;1.27;;
20535;SDS011;10426;49.420;8.390;2023-04-01T02:56:31;3.78;;;1.20;;
20535;SDS011;10426;49.420;8.390;2023-04-01T02:58:58;2.03;;;1.20;;
20535;SDS011;10426;49.420;8.390;2023-04-01T03:01:26;3.00;;;1.30;;
20535;SDS011;10426;49.420;8.390;2023-04-01T03:03:53;1.58;;;0.88;;
20535;SDS011;10426;49.420;8.390;2023-04-01T03:06:19;3.30;;;1.10;;
20535;SDS011;10426;49.420;8.390;2023-04-01T03:08:48;1.70;;;0.98;;
20535;SDS011;10426;49.420;8.390;2023-04-01T03:11:14;2.58;;;1.00;;
20535;SDS011;10426;49.420;8.390;2023-04-01T03:13:41;2.92;;;1.30;;
20535;SDS011;10426;49.420;8.390;2023-04-01T03:16:08;2.15;;;1.30;;
20535;SDS011;10426;49.420;8.390;2023-04-01T03:18:36;2.60;;;1.00;;
20535;SDS011;10426;49.420;8.390;2023-04-01T03:21:12;2.15;;;1.02;;
20535;SDS011;10426;49.420;8.390;2023-04-01T03:23:38;1.95;;;0.93;;
20535;SDS011;10426;49.420;8.390;2023-04-01T03:26:05;2.00;;;1.10;;
20535;SDS011;10426;49.420;8.390;2023-04-01T03:28:32;1.40;;;1.00;;
20535;SDS011;10426;49.420;8.390;2023-04-01T03:30:58;2.10;;;1.10;;
20535;SDS011;10426;49.420;8.390;2023-04-01T03:33:25;2.38;;;1.23;;
20535;SDS011;10426;49.420;8.390;2023-04-01T03:35:53;2.10;;;1.23;;
20535;SDS011;10426;49.420;8.390;2023-04-01T03:38:20;2.33;;;1.20;;
20535;SDS011;10426;49.420;8.390;2023-04-01T03:40:46;2.50;;;1.05;;
20535;SDS011;10426;49.420;8.390;2023-04-01T03:43:13;3.90;;;1.23;;
20535;SDS011;10426;49.420;8.390;2023-04-01T03:45:43;2.27;;;1.10;;
20535;SDS011;10426;49.420;8.390;2023-04-01T03:48:09;2.33;;;0.90;;
20535;SDS011;10426;49.420;8.390;2023-04-01T03:50:36;2.38;;;1.13;;
20535;SDS011;10426;49.420;8.390;2023-04-01T03:53:04;1.35;;;0.82;;
20535;SDS011;10426;49.420;8.390;2023-04-01T03:55:31;1.23;;;0.90;;
20535;SDS011;10426;49.420;8.390;2023-04-01T03:57:57;1.73;;;0.98;;
20535;SDS011;10426;49.420;8.390;2023-04-01T04:00:24;1.60;;;0.80;;
20535;SDS011;10426;49.420;8.390;2023-04-01T04:02:50;2.00;;;1.10;;
20535;SDS011;10426;49.420;8.390;2023-04-01T04:05:17;1.65;;;1.10;;
20535;SDS011;10426;49.420;8.390;2023-04-01T04:07:44;1.95;;;1.33;;
20535;SDS011;10426;49.420;8.390;2023-04-01T04:10:11;2.08;;;1.30;;
20535;SDS011;10426;49.420;8.390;2023-04-01T04:12:38;1.38;;;0.90;;
20535;SDS011;10426;49.420;8.390;2023-04-01T04:15:06;1.33;;;0.82;;
20535;SDS011;10426;49.420;8.390;2023-04-01T04:17:32;1.70;;;0.95;;
20535;SDS011;10426;49.420;8.390;2023-04-01T04:19:59;3.05;;;1.02;;
20535;SDS011;10426;49.420;8.390;2023-04-01T04:22:25;1.73;;;1.00;;
20535;SDS011;10426;49.420;8.390;2023-04-01T04:24:52;2.10;;;1.13;;
20535;SDS011;10426;49.420;8.390;2023-04-01T04:27:20;2.25;;;1.00;;
20535;SDS011;10426;49.420;8.390;2023-04-01T04:29:47;2.80;;;1.05;;
20535;SDS011;10426;49.420;8.390;2023-04-01T04:32:13;1.52;;;1.00;;
20535;SDS011;10426;49.420;8.390;2023-04-01T04:34:40;3.00;;;1.20;;
20535;SDS011;10426;49.420;8.390;2023-04-01T04:37:06;1.25;;;0.90;;
20535;SDS011;10426;49.420;8.390;2023-04-01T04:39:33;2.88;;;0.95;;
20535;SDS011;10426;49.420;8.390;2023-04-01T04:42:00;2.42;;;1.20;;
20535;SDS011;10426;49.420;8.390;2023-04-01T04:44:28;2.33;;;1.20;;
20535;SDS011;10426;49.420;8.390;2023-04-01T04:46:54;2.35;;;1.08;;
20535;SDS011;10426;49.420;8.390;2023-04-01T04:49:21;2.17;;;1.23;;
20535;SDS011;10426;49.420;8.390;2023-04-01T04:51:47;1.85;;;1.00;;
20535;SDS011;10426;49.420;8.390;2023-04-01T04:54:15;1.73;;;1.23;;
20535;SDS011;10426;49.420;8.390;2023-04-01T04:56:41;3.08;;;1.25;;
20535;SDS011;10426;49.420;8.390;2023-04-01T04:59:08;1.23;;;0.88;;
20535;SDS011;10426;49.420;8.390;2023-04-01T05:01:36;2.92;;;1.35;;
20535;SDS011;10426;49.420;8.390;2023-04-01T05:04:02;2.92;;;1.33;;
20535;SDS011;10426;49.420;8.390;2023-04-01T05:06:29;1.88;;;1.30;;
20535;SDS011;10426;49.420;8.390;2023-04-01T05:08:56;2.88;;;1.30;;
20535;SDS011;10426;49.420;8.390;2023-04-01T05:11:23;2.33;;;1.02;;
20535;SDS011;10426;49.420;8.390;2023-04-01T05:13:51;2.10;;;1.20;;
20535;SDS011;10426;49.420;8.390;2023-04-01T05:16:18;3.08;;;1.30;;
20535;SDS011;10426;49.420;8.390;2023-04-01T05:18:47;2.75;;;1.42;;
20535;SDS011;10426;49.420;8.390;2023-04-01T05:21:13;2.45;;;1.15;;
20535;SDS011;10426;49.420;8.390;2023-04-01T05:23:40;2.42;;;1.27;;
20535;SDS011;10426;49.420;8.390;2023-04-01T05:26:08;2.70;;;1.30;;
20535;SDS011;10426;49.420;8.390;2023-04-01T05:28:35;2.55;;;1.20;;
20535;SDS011;10426;49.420;8.390;2023-04-01T05:31:02;2.85;;;1.42;;
20535;SDS011;10426;49.420;8.390;2023-04-01T05:33:29;4.03;;;1.35;;
20535;SDS011;10426;49.420;8.390;2023-04-01T05:35:57;2.13;;;1.00;;
20535;SDS011;10426;49.420;8.390;2023-04-01T05:38:31;2.47;;;1.15;;
20535;SDS011;10426;49.420;8.390;2023-04-01T05:40:58;2.25;;;0.98;;
20535;SDS011;10426;49.420;8.390;2023-04-01T05:43:25;4.90;;;1.33;;
20535;SDS011;10426;49.420;8.390;2023-04-01T05:45:51;2.53;;;1.05;;
20535;SDS011;10426;49.420;8.390;2023-04-01T05:48:18;2.70;;;1.20;;
20535;SDS011;10426;49.420;8.390;2023-04-01T05:50:45;1.70;;;1.10;;
20535;SDS011;10426;49.420;8.390;2023-04-01T05:53:13;2.53;;;1.30;;
20535;SDS011;10426;49.420;8.390;2023-04-01T05:55:39;2.70;;;1.20;;
20535;SDS011;10426;49.420;8.390;2023-04-01T05:58:06;1.70;;;1.10;;
20535;SDS011;10426;49.420;8.390;2023-04-01T06:00:32;2.22;;;0.95;;
20535;SDS011;10426;49.420;8.390;2023-04-01T06:02:59;3.78;;;1.20;;
20535;SDS011;10426;49.420;8.390;2023-04-01T06:05:27;2.17;;;1.23;;
20535;SDS011;10426;49.420;8.390;2023-04-01T06:07:55;2.42;;;1.00;;
20535;SDS011;10426;49.420;8.390;2023-04-01T06:10:25;2.25;;;1.08;;
20535;SDS011;10426;49.420;8.390;2023-04-01T06:12:59;2.25;;;1.25;;
20535;SDS011;10426;49.420;8.390;2023-04-01T06:15:30;1.30;;;1.10;;
20535;SDS011;10426;49.420;8.390;2023-04-01T06:18:04;1.88;;;0.98;;
20535;SDS011;10426;49.420;8.390;2023-04-01T06:20:37;2.08;;;1.20;;
20535;SDS011;10426;49.420;8.390;2023-04-01T06:23:18;2.43;;;1.00;;
20535;SDS011;10426;49.420;8.390;2023-04-01T06:25:54;1.95;;;0.93;;
20535;SDS011;10426;49.420;8.390;2023-04-01T06:28:29;1.70;;;0.80;;
20535;SDS011;10426;49.420;8.390;2023-04-01T06:31:00;1.92;;;0.90;;
20535;SDS011;10426;49.420;8.390;2023-04-01T06:33:33;0.93;;;0.80;;
20535;SDS011;10426;49.420;8.390;2023-04-01T06:36:13;2.13;;;0.95;;
20535;SDS011;10426;49.420;8.390;2023-04-01T06:38:52;1.55;;;0.80;;
20535;SDS011;10426;49.420;8.390;2023-04-01T06:41:26;1.70;;;0.77;;
20535;SDS011;10426;49.420;8.390;2023-04-01T06:43:59;0.90;;;0.80;;
20535;SDS011;10426;49.420;8.390;2023-04-01T06:46:33;1.50;;;0.85;;
20535;SDS011;10426;49.420;8.390;2023-04-01T06:49:05;1.27;;;0.70;;
20535;SDS011;10426;49.420;8.390;2023-04-01T06:51:35;1.55;;;1.00;;
20535;SDS011;10426;49.420;8.390;2023-04-01T06:54:07;0.70;;;0.70;;
20535;SDS011;10426;49.420;8.390;2023-04-01T06:56:37;1.00;;;0.70;;
20535;SDS011;10426;49.420;8.390;2023-04-01T06:59:05;1.40;;;0.80;;
20535;SDS011;10426;49.420;8.390;2023-04-01T07:01:34;1.48;;;0.82;;
20535;SDS011;10426;49.420;8.390;2023-04-01T07:04:02;1.52;;;0.70;;
20535;SDS011;10426;49.420;8.390;2023-04-01T07:06:32;0.83;;;0.83;;
20535;SDS011;10426;49.420;8.390;2023-04-01T07:09:02;1.23;;;0.68;;
20535;SDS011;10426;49.420;8.390;2023-04-01T07:11:30;0.73;;;0.70;;
20535;SDS011;10426;49.420;8.390;2023-04-01T07:14:00;0.82;;;0.70;;
20535;SDS011;10426;49.420;8.390;2023-04-01T07:16:29;0.80;;;0.50;;
20535;SDS011;10426;49.420;8.390;2023-04-01T07:18:58;1.60;;;0.90;;
20535;SDS011;10426;49.420;8.390;2023-04-01T07:21:26;1.45;;;0.68;;
20535;SDS011;10426;49.420;8.390;2023-04-01T07:23:56;0.90;;;0.60;;
20535;SDS011;10426;49.420;8.390;2023-04-01T07:26:24;1.00;;;0.60;;
20535;SDS011;10426;49.420;8.390;2023-04-01T07:28:52;0.90;;;0.68;;
20535;SDS011;10426;49.420;8.390;2023-04-01T07:31:22;1.30;;;0.80;;
20535;SDS011;10426;49.420;8.390;2023-04-01T07:33:53;1.27;;;0.77;;
20535;SDS011;10426;49.420;8.390;2023-04-01T07:36:24;1.13;;;0.90;;
20535;SDS011;10426;49.420;8.390;2023-04-01T07:38:56;0.68;;;0.50;;
20535;SDS011;10426;49.420;8.390;2023-04-01T07:41:28;0.88;;;0.60;;
20535;SDS011;10426;49.420;8.390;2023-04-01T07:44:01;0.63;;;0.52;;
20535;SDS011;10426;49.420;8.390;2023-04-01T07:46:37;0.70;;;0.70;;
20535;SDS011;10426;49.420;8.390;2023-04-01T07:49:08;1.03;;;0.70;;
20535;SDS011;10426;49.420;8.390;2023-04-01T07:51:37;0.90;;;0.80;;
20535;SDS011;10426;49.420;8.390;2023-04-01T07:54:08;0.90;;;0.60;;
20535;SDS011;10426;49.420;8.390;2023-04-01T07:56:38;1.15;;;0.90;;
20535;SDS011;10426;49.420;8.390;2023-04-01T07:59:09;0.80;;;0.80;;
20535;SDS011;10426;49.420;8.390;2023-04-01T08:01:44;0.55;;;0.55;;
20535;SDS011;10426;49.420;8.390;2023-04-01T08:04:22;0.63;;;0.60;;
20535;SDS011;10426;49.420;8.390;2023-04-01T08:06:51;0.90;;;0.60;;
20535;SDS011;10426;49.420;8.390;2023-04-01T08:09:22;0.40;;;0.40;;
20535;SDS011;10426;49.420;8.390;2023-04-01T08:11:56;0.95;;;0.50;;
20535;SDS011;10426;49.420;8.390;2023-04-01T08:14:28;0.90;;;0.65;;
20535;SDS011;10426;49.420;8.390;2023-04-01T08:16:59;0.98;;;0.70;;
20535;SDS011;10426;49.420;8.390;2023-04-01T08:19:30;0.50;;;0.43;;
20535;SDS011;10426;49.420;8.390;2023-04-01T08:21:58;0.50;;;0.50;;
20535;SDS011;10426;49.420;8.390;2023-04-01T08:24:33;0.90;;;0.60;;
20535;SDS011;10426;49.420;8.390;2023-04-01T08:27:03;0.93;;;0.57;;
20535;SDS011;10426;49.420;8.390;2023-04-01T08:29:34;0.90;;;0.43;;
20535;SDS011;10426;49.420;8.390;2023-04-01T08:32:05;0.47;;;0.47;;
20535;SDS011;10426;49.420;8.390;2023-04-01T08:34:34;0.80;;;0.68;;
20535;SDS011;10426;49.420;8.390;2023-04-01T08:37:02;0.63;;;0.50;;
20535;SDS011;10426;49.420;8.390;2023-04-01T08:39:31;0.60;;;0.60;;
20535;SDS011;10426;49.420;8.390;2023-04-01T08:42:05;0.70;;;0.70;;
20535;SDS011;10426;49.420;8.390;2023-04-01T08:44:49;0.70;;;0.70;;
20535;SDS011;10426;49.420;8.390;2023-04-01T08:52:56;1.13;;;1.00;;
20535;SDS011;10426;49.420;8.390;2023-04-01T08:55:27;1.65;;;1.55;;
20535;SDS011;10426;49.420;8.390;2023-04-01T09:00:43;1.50;;;1.20;;
20535;SDS011;10426;49.420;8.390;2023-04-01T09:03:19;1.02;;;1.02;;
20535;SDS011;10426;49.420;8.390;2023-04-01T09:06:02;0.80;;;0.80;;
20535;SDS011;10426;49.420;8.390;2023-04-01T09:08:33;1.00;;;0.90;;
20535;SDS011;10426;49.420;8.390;2023-04-01T09:11:07;0.80;;;0.80;;
20535;SDS011;10426;49.420;8.390;2023-04-01T09:13:42;0.60;;;0.60;;
20535;SDS011;10426;49.420;8.390;2023-04-01T09:16:20;0.57;;;0.57;;
20535;SDS011;10426;49.420;8.390;2023-04-01T09:18:51;1.10;;;0.80;;
20535;SDS011;10426;49.420;8.390;2023-04-01T09:21:31;0.47;;;0.47;;
20535;SDS011;10426;49.420;8.390;2023-04-01T09:26:53;0.80;;;0.30;;
20535;SDS011;10426;49.420;8.390;2023-04-01T09:29:29;1.48;;;0.50;;
20535;SDS011;10426;49.420;8.390;2023-04-01T09:32:04;0.30;;;0.30;;
20535;SDS011;10426;49.420;8.390;2023-04-01T09:34:41;0.30;;;0.30;;
20535;SDS011;10426;49.420;8.390;2023-04-01T09:37:19;0.43;;;0.40;;
20535;SDS011;10426;49.420;8.390;2023-04-01T09:39:51;1.20;;;0.30;;
20535;SDS011;10426;49.420;8.390;2023-04-01T09:42:29;0.57;;;0.50;;
20535;SDS011;10426;49.420;8.390;2023-04-01T09:44:59;0.30;;;0.30;;
20535;SDS011;10426;49.420;8.390;2023-04-01T09:47:29;0.30;;;0.30;;
20535;SDS011;10426;49.420;8.390;2023-04-01T09:52:43;0.30;;;0.30;;
20535;SDS011;10426;49.420;8.390;2023-04-01T09:55:16;0.30;;;0.30;;
20535;SDS011;10426;49.420;8.390;2023-04-01T09:57:53;0.40;;;0.40;;
20535;SDS011;10426;49.420;8.390;2023-04-01T10:00:32;0.20;;;0.20;;
20535;SDS011;10426;49.420;8.390;2023-04-01T10:08:56;0.50;;;0.40;;
20535;SDS011;10426;49.420;8.390;2023-04-01T10:11:41;0.30;;;0.30;;
20535;SDS011;10426;49.420;8.390;2023-04-01T10:14:23;0.30;;;0.30;;
20535;SDS011;10426;49.420;8.390;2023-04-01T10:19:49;0.80;;;0.40;;
20535;SDS011;10426;49.420;8.390;2023-04-01T10:22:25;0.80;;;0.30;;
20535;SDS011;10426;49.420;8.390;2023-04-01T10:25:05;0.28;;;0.28;;
20535;SDS011;10426;49.420;8.390;2023-04-01T10:27:49;0.30;;;0.30;;
20535;SDS011;10426;49.420;8.390;2023-04-01T10:30:42;0.22;;;0.22;;
20535;SDS011;10426;49.420;8.390;2023-04-01T10:36:26;0.32;;;0.30;;
20535;SDS011;10426;49.420;8.390;2023-04-01T10:41:44;0.40;;;0.40;;
20535;SDS011;10426;49.420;8.390;2023-04-01T10:44:23;0.70;;;0.20;;
20535;SDS011;10426;49.420;8.390;2023-04-01T10:47:04;0.37;;;0.37;;
20535;SDS011;10426;49.420;8.390;2023-04-01T10:49:43;0.70;;;0.30;;
20535;SDS011;10426;49.420;8.390;2023-04-01T10:52:19;0.20;;;0.20;;
20535;SDS011;10426;49.420;8.390;2023-04-01T10:54:49;0.38;;;0.38;;
20535;SDS011;10426;49.420;8.390;2023-04-01T10:57:32;0.65;;;0.35;;
20535;SDS011;10426;49.420;8.390;2023-04-01T11:00:08;0.30;;;0.30;;
20535;SDS011;10426;49.420;8.390;2023-04-01T11:05:52;0.20;;;0.20;;
20535;SDS011;10426;49.420;8.390;2023-04-01T11:11:20;0.20;;;0.20;;
20535;SDS011;10426;49.420;8.390;2023-04-01T11:13:58;0.30;;;0.30;;
20535;SDS011;10426;49.420;8.390;2023-04-01T11:19:22;0.20;;;0.20;;
20535;SDS011;10426;49.420;8.390;2023-04-01T11:21:59;0.38;;;0.38;;
20535;SDS011;10426;49.420;8.390;2023-04-01T11:24:38;0.65;;;0.30;;
20535;SDS011;10426;49.420;8.390;2023-04-01T11:27:15;1.00;;;0.30;;
20535;SDS011;10426;49.420;8.390;2023-04-01T11:29:48;0.20;;;0.20;;
20535;SDS011;10426;49.420;8.390;2023-04-01T11:32:23;0.20;;;0.20;;
20535;SDS011;10426;49.420;8.390;2023-04-01T11:34:55;0.20;;;0.20;;
20535;SDS011;10426;49.420;8.390;2023-04-01T11:37:31;0.35;;;0.20;;
20535;SDS011;10426;49.420;8.390;2023-04-01T11:40:01;0.30;;;0.30;;
20535;SDS011;10426;49.420;8.390;2023-04-01T11:42:31;0.50;;;0.50;;
20535;SDS011;10426;49.420;8.390;2023-04-01T11:45:07;1.10;;;1.02;;
20535;SDS011;10426;49.420;8.390;2023-04-01T11:47:45;0.27;;;0.27;;
20535;SDS011;10426;49.420;8.390;2023-04-01T11:50:17;0.50;;;0.30;;
20535;SDS011;10426;49.420;8.390;2023-04-01T11:52:53;0.25;;;0.25;;
20535;SDS011;10426;49.420;8.390;2023-04-01T11:55:25;0.30;;;0.30;;
20535;SDS011;10426;49.420;8.390;2023-04-01T11:57:59;0.28;;;0.28;;
20535;SDS011;10426;49.420;8.390;2023-04-01T12:00:34;0.20;;;0.20;;
20535;SDS011;10426;49.420;8.390;2023-04-01T12:03:10;0.40;;;0.40;;
20535;SDS011;10426;49.420;8.390;2023-04-01T12:05:43;0.20;;;0.20;;
20535;SDS011;10426;49.420;8.390;2023-04-01T12:08:29;0.20;;;0.20;;
20535;SDS011;10426;49.420;8.390;2023-04-01T12:10:59;0.40;;;0.40;;
20535;SDS011;10426;49.420;8.390;2023-04-01T12:13:33;0.63;;;0.63;;
20535;SDS011;10426;49.420;8.390;2023-04-01T12:16:08;0.20;;;0.20;;
20535;SDS011;10426;49.420;8.390;2023-04-01T12:18:38;0.57;;;0.22;;
20535;SDS011;10426;49.420;8.390;2023-04-01T12:21:10;0.40;;;0.40;;
20535;SDS011;10426;49.420;8.390;2023-04-01T12:23:59;1.00;;;0.30;;
20535;SDS011;10426;49.420;8.390;2023-04-01T12:26:47;0.20;;;0.20;;
20535;SDS011;10426;49.420;8.390;2023-04-01T12:29:24;0.30;;;0.30;;
20535;SDS011;10426;49.420;8.390;2023-04-01T12:31:57;0.60;;;0.60;;
20535;SDS011;10426;49.420;8.390;2023-04-01T12:34:36;0.30;;;0.30;;
20535;SDS011;10426;49.420;8.390;2023-04-01T12:37:09;0.20;;;0.20;;
20535;SDS011;10426;49.420;8.390;2023-04-01T12:39:54;0.30;;;0.30;;
20535;SDS011;10426;49.420;8.390;2023-04-01T12:42:30;0.10;;;0.10;;
20535;SDS011;10426;49.420;8.390;2023-04-01T12:45:02;0.30;;;0.30;;
20535;SDS011;10426;49.420;8.390;2023-04-01T12:47:45;0.22;;;0.22;;
20535;SDS011;10426;49.420;8.390;2023-04-01T12:50:16;0.90;;;0.30;;
20535;SDS011;10426;49.420;8.390;2023-04-01T12:52:50;0.40;;;0.22;;
20535;SDS011;10426;49.420;8.390;2023-04-01T12:55:27;0.20;;;0.20;;
20535;SDS011;10426;49.420;8.390;2023-04-01T13:01:03;0.30;;;0.30;;
20535;SDS011;10426;49.420;8.390;2023-04-01T13:03:41;0.20;;;0.20;;
20535;SDS011;10426;49.420;8.390;2023-04-01T13:08:56;0.30;;;0.30;;
20535;SDS011;10426;49.420;8.390;2023-04-01T13:11:32;0.30;;;0.30;;
20535;SDS011;10426;49.420;8.390;2023-04-01T13:14:12;0.60;;;0.27;;
20535;SDS011;10426;49.420;8.390;2023-04-01T13:16:41;0.40;;;0.30;;
20535;SDS011;10426;49.420;8.390;2023-04-01T13:19:12;0.35;;;0.35;;
20535;SDS011;10426;49.420;8.390;2023-04-01T13:21:46;0.50;;;0.38;;
20535;SDS011;10426;49.420;8.390;2023-04-01T13:24:23;0.60;;;0.40;;
20535;SDS011;10426;49.420;8.390;2023-04-01T13:26:55;0.40;;;0.40;;
20535;SDS011;10426;49.420;8.390;2023-04-01T13:29:23;0.60;;;0.40;;
20535;SDS011;10426;49.420;8.390;2023-04-01T13:31:55;0.75;;;0.70;;
20535;SDS011;10426;49.420;8.390;2023-04-01T13:34:32;0.90;;;0.50;;
20535;SDS011;10426;49.420;8.390;2023-04-01T13:37:04;0.20;;;0.20;;
20535;SDS011;10426;49.420;8.390;2023-04-01T13:39:41;0.33;;;0.20;;
20535;SDS011;10426;49.420;8.390;2023-04-01T13:42:17;0.20;;;0.20;;
20535;SDS011;10426;49.420;8.390;2023-04-01T13:44:46;0.65;;;0.30;;
20535;SDS011;10426;49.420;8.390;2023-04-01T13:47:24;0.32;;;0.30;;
20535;SDS011;10426;49.420;8.390;2023-04-01T13:49:58;0.17;;;0.17;;
20535;SDS011;10426;49.420;8.390;2023-04-01T13:52:49;0.68;;;0.28;;
20535;SDS011;10426;49.420;8.390;2023-04-01T13:55:23;0.30;;;0.30;;
20535;SDS011;10426;49.420;8.390;2023-04-01T13:58:04;0.45;;;0.40;;
20535;SDS011;10426;49.420;8.390;2023-04-01T14:00:36;0.50;;;0.50;;
20535;SDS011;10426;49.420;8.390;2023-04-01T14:03:11;0.30;;;0.30;;
20535;SDS011;10426;49.420;8.390;2023-04-01T14:05:47;0.40;;;0.40;;
20535;SDS011;10426;49.420;8.390;2023-04-01T14:08:23;0.30;;;0.30;;
20535;SDS011;10426;49.420;8.390;2023-04-01T14:10:55;0.40;;;0.40;;
20535;SDS011;10426;49.420;8.390;2023-04-01T14:13:28;0.50;;;0.50;;
20535;SDS011;10426;49.420;8.390;2023-04-01T14:16:02;0.32;;;0.32;;
20535;SDS011;10426;49.420;8.390;2023-04-01T14:18:42;0.50;;;0.47;;
20535;SDS011;10426;49.420;8.390;2023-04-01T14:21:17;0.60;;;0.60;;
20535;SDS011;10426;49.420;8.390;2023-04-01T14:29:16;0.90;;;0.50;;
20535;SDS011;10426;49.420;8.390;2023-04-01T14:31:48;1.00;;;0.50;;
20535;SDS011;10426;49.420;8.390;2023-04-01T14:34:22;0.30;;;0.30;;
20535;SDS011;10426;49.420;8.390;2023-04-01T14:42:32;0.30;;;0.30;;
20535;SDS011;10426;49.420;8.390;2023-04-01T14:45:12;0.82;;;0.50;;
20535;SDS011;10426;49.420;8.390;2023-04-01T14:47:46;0.40;;;0.40;;
20535;SDS011;10426;49.420;8.390;2023-04-01T14:50:14;0.70;;;0.70;;
20535;SDS011;10426;49.420;8.390;2023-04-01T14:52:42;0.40;;;0.40;;
20535;SDS011;10426;49.420;8.390;2023-04-01T14:55:17;0.40;;;0.40;;
20535;SDS011;10426;49.420;8.390;2023-04-01T14:57:52;0.52;;;0.40;;
20535;SDS011;10426;49.420;8.390;2023-04-01T15:00:25;0.50;;;0.50;;
20535;SDS011;10426;49.420;8.390;2023-04-01T15:02:54;0.50;;;0.50;;
20535;SDS011;10426;49.420;8.390;2023-04-01T15:05:27;0.45;;;0.45;;
20535;SDS011;10426;49.420;8.390;2023-04-01T15:08:00;0.40;;;0.40;;
20535;SDS011;10426;49.420;8.390;2023-04-01T15:10:32;0.70;;;0.50;;
20535;SDS011;10426;49.420;8.390;2023-04-01T15:13:05;0.52;;;0.52;;
20535;SDS011;10426;49.420;8.390;2023-04-01T15:15:39;0.40;;;0.40;;
20535;SDS011;10426;49.420;8.390;2023-04-01T15:18:08;0.90;;;0.50;;
20535;SDS011;10426;49.420;8.390;2023-04-01T15:23:28;0.40;;;0.40;;
20535;SDS011;10426;49.420;8.390;2023-04-01T15:26:05;0.70;;;0.50;;
20535;SDS011;10426;49.420;8.390;2023-04-01T15:28:34;1.00;;;0.45;;
20535;SDS011;10426;49.420;8.390;2023-04-01T15:31:06;0.40;;;0.40;;
20535;SDS011;10426;49.420;8.390;2023-04-01T15:33:39;0.35;;;0.35;;
20535;SDS011;10426;49.420;8.390;2023-04-01T15:36:12;0.45;;;0.40;;
20535;SDS011;10426;49.420;8.390;2023-04-01T15:38:41;0.47;;;0.47;;
20535;SDS011;10426;49.420;8.390;2023-04-01T15:41:11;0.50;;;0.50;;
20535;SDS011;10426;49.420;8.390;2023-04-01T15:43:41;0.40;;;0.40;;
20535;SDS011;10426;49.420;8.390;2023-04-01T15:46:12;0.50;;;0.50;;
20535;SDS011;10426;49.420;8.390;2023-04-01T15:48:45;0.43;;;0.40;;
20535;SDS011;10426;49.420;8.390;2023-04-01T15:53:56;0.40;;;0.40;;
20535;SDS011;10426;49.420;8.390;2023-04-01T15:56:28;0.47;;;0.47;;
20535;SDS011;10426;49.420;8.390;2023-04-01T15:59:04;0.80;;;0.43;;
20535;SDS011;10426;49.420;8.390;2023-04-01T16:01:39;0.40;;;0.40;;
20535;SDS011;10426;49.420;8.390;2023-04-01T16:04:17;0.60;;;0.60;;
20535;SDS011;10426;49.420;8.390;2023-04-01T16:06:53;1.30;;;1.20;;
20535;SDS011;10426;49.420;8.390;2023-04-01T16:12:09;0.60;;;0.57;;
20535;SDS011;10426;49.420;8.390;2023-04-01T16:14:42;1.00;;;0.90;;
20535;SDS011;10426;49.420;8.390;2023-04-01T16:17:20;0.90;;;0.70;;
20535;SDS011;10426;49.420;8.390;2023-04-01T16:19:49;1.40;;;1.00;;
20535;SDS011;10426;49.420;8.390;2023-04-01T16:22:19;0.70;;;0.70;;